全部
Kane County Hospital Airport (Kanab, UT) UT02 天气
There is no TAF data available at UT02 or any nearby airports.
There is no METAR data available at UT02. Showing METAR data for KKNB (3 mi S).
KNB近期METAR历史数据(UT02无数据)
| Date | Time (MDT) | Flight Rules | Wind Dir. | Speed | Type | Height AGL (ft) | Visibility | Temp (°C) | Temp (°F) | Dew Point (°C) | Dew Point (°F) | Rel. Humid. | Pressure | Density Altitude | Remarks |
|---|---|---|---|---|---|---|---|---|---|---|---|---|---|---|---|
| 05-九月 | 09:35 | VFR | 360° | kt | 9 miles |
20° | 68° | 5° | 41° | 37% | 30.21 in Hg | 6,127 ft | |||
| 05-九月 | 09:15 | VFR | 350° | kt | 10 miles | 18° | 64° | 5° | 41° | 42% | 30.21 in Hg | 5,887 ft | |||
| 05-九月 | 08:55 | VFR | 10° | 2 kt | 10 miles | 18° | 64° | 5° | 41° | 42% | 30.21 in Hg | 5,887 ft | |||
| 05-九月 | 08:35 | VFR | 10° | kt | 10 miles | 17° | 62° | 5° | 41° | 45% | 30.21 in Hg | 5,767 ft | |||
| 05-九月 | 08:15 | VFR | 40° | kt | 10 miles |
15° | 59° | 7° | 44° | 59% | 30.20 in Hg | 5,537 ft | |||
| 05-九月 | 07:55 | VFR | 40° | kt | 9 miles | 14° | 57° | 6° | 42° | 58% | 30.20 in Hg | 5,417 ft | |||
| 05-九月 | 07:35 | VFR | 60° | kt | 9 miles | 13° | 55° | 6° | 42° | 62% | 30.19 in Hg | 5,307 ft | |||
| 05-九月 | 07:15 | VFR | 20° | kt | 9 miles |
12° | 53° | 7° | 44° | 71% | 30.18 in Hg | 5,197 ft | |||
| 05-九月 | 06:55 | VFR | 70° | kt | 10 miles | 12° | 53° | 7° | 44° | 71% | 30.17 in Hg | 5,207 ft | |||
| 05-九月 | 06:35 | VFR | 60° | kt | 10 miles | 12° | 53° | 6° | 42° | 67% | 30.17 in Hg | 5,207 ft | |||
| 05-九月 | 06:15 | VFR | 70° | kt | 10 miles | 12° | 53° | 7° | 44° | 71% | 30.16 in Hg | 5,217 ft | |||
| 05-九月 | 05:55 | VFR | 30° | 2 kt | 10 miles | 13° | 55° | 7° | 44° | 67% | 30.16 in Hg | 5,337 ft | |||
| 05-九月 | 05:35 | VFR | 30° | kt | 10 miles | 12° | 53° | 7° | 44° | 71% | 30.16 in Hg | 5,217 ft | |||
| 05-九月 | 05:15 | VFR | 30° | kt | 10 miles | 13° | 55° | 7° | 44° | 67% | 30.16 in Hg | 5,337 ft | |||
| 05-九月 | 04:55 | VFR | 40° | kt | 10 miles | 13° | 55° | 7° | 44° | 67% | 30.16 in Hg | 5,337 ft | |||
| 05-九月 | 04:35 | VFR | 30° | kt | 10 miles | 12° | 53° | 7° | 44° | 71% | 30.16 in Hg | 5,217 ft | |||
| 05-九月 | 04:15 | VFR | 40° | kt | 10 miles | 12° | 53° | 7° | 44° | 71% | 30.16 in Hg | 5,217 ft | |||
| 05-九月 | 03:55 | VFR | 360° | kt | 10 miles | 14° | 57° | 7° | 44° | 63% | 30.15 in Hg | 5,467 ft | |||
| 05-九月 | 03:35 | VFR | 240° | kt | 10 miles | 14° | 57° | 7° | 44° | 63% | 30.15 in Hg | 5,467 ft | |||
| 05-九月 | 03:15 | VFR | 100° | kt | 10 miles | 14° | 57° | 6° | 42° | 58% | 30.14 in Hg | 5,477 ft | |||
| 05-九月 | 02:55 | VFR | 180° | kt | 10 miles | 15° | 59° | 7° | 44° | 59% | 30.14 in Hg | 5,597 ft | |||
| 05-九月 | 02:35 | VFR | 90° | kt | 10 miles | 15° | 59° | 7° | 44° | 59% | 30.14 in Hg | 5,597 ft | |||
| 05-九月 | 02:15 | VFR | 40° | kt | 10 miles | 16° | 60° | 7° | 44° | 55% | 30.14 in Hg | 5,717 ft | |||
| 05-九月 | 01:55 | VFR | 100° | kt | 10 miles | 16° | 60° | 7° | 44° | 55% | 30.14 in Hg | 5,717 ft |
登录
| 您的浏览器不支持. 升级您的浏览器 |
